Time;durP1;ratioP1;P1;durP2;ratioP2;P2;SDS_P1;SDS_P2;PMS_P1;PMS_P2;Temp;Humidity;BMP_temperature;BMP_pressure;BME280_temperature;BME280_humidity;BME280_pressure;Samples;Min_cycle;Max_cycle;Signal;HPM_P1;HPM_P2
2022/10/02 00:01:44;;;;;;;3.28;1.20;;;10.80;99.90;;;;;;5072748;28;20040;-66
2022/10/02 00:04:15;;;;;;;5.63;1.45;;;10.70;99.90;;;;;;5072798;28;20506;-67
2022/10/02 00:06:46;;;;;;;3.88;1.13;;;10.70;99.90;;;;;;5054476;28;20052;-67
2022/10/02 00:09:38;;;;;;;4.35;0.80;;;10.70;99.90;;;;;;5054458;28;20091;-66
2022/10/02 00:12:07;;;;;;;3.63;1.17;;;10.80;99.90;;;;;;5071347;28;20048;-67
2022/10/02 00:14:37;;;;;;;3.28;0.90;;;10.80;99.90;;;;;;5072553;28;20056;-66
2022/10/02 00:17:03;;;;;;;2.42;0.88;;;10.70;99.90;;;;;;5071242;28;20499;-67
2022/10/02 00:19:29;;;;;;;3.80;1.10;;;10.70;99.90;;;;;;5054301;28;20052;-67
2022/10/02 00:22:00;;;;;;;4.28;1.05;;;10.70;99.90;;;;;;5054464;28;20514;-66
2022/10/02 00:24:35;;;;;;;1.98;0.88;;;10.70;99.90;;;;;;5054225;28;20047;-67
2022/10/02 00:27:21;;;;;;;3.30;1.45;;;10.70;99.90;;;;;;5072388;28;20550;-67
2022/10/02 00:29:54;;;;;;;2.70;1.02;;;10.70;99.90;;;;;;5053398;28;20416;-67
2022/10/02 00:32:26;;;;;;;7.00;1.17;;;10.80;99.90;;;;;;5072304;28;20041;-67
2022/10/02 00:35:19;;;;;;;7.32;1.35;;;10.80;99.90;;;;;;5071915;28;20123;-68
2022/10/02 00:37:54;;;;;;;3.33;1.10;;;10.80;99.90;;;;;;5072210;28;20037;-67
2022/10/02 00:40:36;;;;;;;1.63;0.93;;;10.80;99.90;;;;;;5071906;28;20036;-66
2022/10/02 00:43:40;;;;;;;6.68;1.30;;;10.90;99.90;;;;;;5072211;28;20049;-67
2022/10/02 00:46:11;;;;;;;3.40;1.00;;;10.90;99.90;;;;;;5054122;28;20059;-66
2022/10/02 00:49:00;;;;;;;5.15;1.35;;;10.90;99.90;;;;;;5054200;28;20804;-66
2022/10/02 00:51:51;;;;;;;2.80;1.05;;;11.00;99.90;;;;;;5054167;28;20052;-66
2022/10/02 00:54:30;;;;;;;5.18;1.20;;;10.90;99.90;;;;;;5053814;28;20055;-66
2022/10/02 00:57:10;;;;;;;2.83;1.20;;;11.00;99.90;;;;;;5072006;28;20067;-67
2022/10/02 01:00:00;;;;;;;1.55;0.82;;;11.00;99.90;;;;;;5072028;28;20476;-66
2022/10/02 01:02:52;;;;;;;5.80;1.07;;;11.00;99.90;;;;;;5072033;28;20102;-67
2022/10/02 01:05:19;;;;;;;6.00;1.25;;;11.00;99.90;;;;;;5049134;28;20051;-66
2022/10/02 01:07:49;;;;;;;3.33;0.82;;;11.00;99.90;;;;;;5071954;28;20460;-66
2022/10/02 01:10:15;;;;;;;4.10;1.17;;;11.00;99.90;;;;;;5053807;28;20053;-67
2022/10/02 01:12:41;;;;;;;5.10;0.98;;;11.00;99.90;;;;;;5054040;28;20075;-66
2022/10/02 01:15:19;;;;;;;3.35;0.93;;;11.20;99.90;;;;;;5053550;28;20057;-66
2022/10/02 01:17:48;;;;;;;5.20;0.98;;;11.00;99.90;;;;;;5071366;28;20099;-67
2022/10/02 01:20:22;;;;;;;2.88;1.00;;;11.00;99.90;;;;;;5071584;28;20496;-66
2022/10/02 01:22:56;;;;;;;1.77;1.05;;;11.00;99.90;;;;;;5053596;28;20077;-67
2022/10/02 01:25:22;;;;;;;2.67;0.90;;;11.10;99.90;;;;;;5053743;28;20044;-67
2022/10/02 01:27:49;;;;;;;2.25;0.98;;;11.00;99.90;;;;;;5071508;28;20097;-67
2022/10/02 01:30:17;;;;;;;1.25;0.80;;;11.10;99.90;;;;;;5075804;28;20089;-66
2022/10/02 01:32:55;;;;;;;1.20;0.60;;;11.10;99.90;;;;;;5075633;28;20040;-66
2022/10/02 01:35:26;;;;;;;3.75;0.90;;;11.10;99.90;;;;;;5075428;28;20059;-66
2022/10/02 01:37:53;;;;;;;2.10;0.90;;;11.00;99.90;;;;;;5057259;28;20045;-67
2022/10/02 01:40:27;;;;;;;2.78;1.02;;;11.00;99.90;;;;;;5057264;28;20071;-66
2022/10/02 01:42:56;;;;;;;3.05;0.70;;;11.00;99.90;;;;;;5075266;28;20068;-67
2022/10/02 01:45:52;;;;;;;1.00;0.77;;;11.00;99.90;;;;;;5057212;28;20054;-68
2022/10/02 01:48:38;;;;;;;7.40;1.02;;;11.00;99.90;;;;;;5028366;28;20143;-66
2022/10/02 01:51:21;;;;;;;1.02;0.70;;;11.00;99.90;;;;;;5057046;28;20040;-66
2022/10/02 01:53:49;;;;;;;1.55;0.70;;;11.10;99.90;;;;;;5057021;28;20063;-66
2022/10/02 01:56:22;;;;;;;1.60;0.80;;;11.30;99.90;;;;;;5075241;28;20098;-66
2022/10/02 01:59:22;;;;;;;1.73;0.93;;;11.30;99.90;;;;;;5057229;28;20491;-66
2022/10/02 02:02:23;;;;;;;3.15;0.80;;;11.20;99.90;;;;;;5056172;28;20052;-66
2022/10/02 02:04:58;;;;;;;3.72;0.70;;;11.20;99.90;;;;;;5075026;28;20451;-66
2022/10/02 02:07:25;;;;;;;2.83;0.77;;;11.30;99.90;;;;;;5075043;28;20094;-67
2022/10/02 02:10:15;;;;;;;1.90;0.77;;;11.30;99.90;;;;;;5074583;28;20051;-66
2022/10/02 02:13:07;;;;;;;2.95;0.90;;;11.30;99.90;;;;;;5074645;28;20032;-67
2022/10/02 02:15:46;;;;;;;1.60;0.50;;;11.30;99.90;;;;;;5061032;28;20067;-67
2022/10/02 02:18:31;;;;;;;1.30;0.55;;;11.30;99.90;;;;;;5054456;28;20049;-66
2022/10/02 02:21:02;;;;;;;1.55;0.63;;;11.30;99.90;;;;;;5054494;28;20045;-67
2022/10/02 02:23:33;;;;;;;2.95;1.05;;;11.20;99.90;;;;;;5036661;28;20052;-66
2022/10/02 02:26:08;;;;;;;5.95;0.95;;;11.10;99.90;;;;;;5054695;28;20503;-67
2022/10/02 02:28:36;;;;;;;1.88;0.95;;;11.20;99.90;;;;;;5036471;28;20053;-66
2022/10/02 02:31:05;;;;;;;1.90;0.90;;;11.20;99.90;;;;;;5036670;28;20132;-66
2022/10/02 02:33:47;;;;;;;1.90;0.70;;;11.20;99.90;;;;;;5036869;28;20056;-66
2022/10/02 02:36:17;;;;;;;3.83;0.95;;;11.20;99.90;;;;;;5054522;28;20044;-66
2022/10/02 02:38:56;;;;;;;1.65;0.85;;;11.10;99.90;;;;;;5054123;28;20056;-66
2022/10/02 02:41:36;;;;;;;2.10;0.85;;;11.10;99.90;;;;;;5053324;28;20051;-67
2022/10/02 02:44:17;;;;;;;1.15;0.68;;;11.40;99.90;;;;;;5054038;28;20078;-66
2022/10/02 02:47:04;;;;;;;0.85;0.65;;;11.10;99.90;;;;;;5053987;28;20039;-66
2022/10/02 02:49:38;;;;;;;1.65;0.85;;;11.10;99.90;;;;;;5036277;28;20503;-66
2022/10/02 02:52:09;;;;;;;1.35;0.75;;;11.10;99.90;;;;;;5036333;28;20044;-66
2022/10/02 02:54:56;;;;;;;2.65;1.05;;;11.10;99.90;;;;;;5054194;28;20041;-66
2022/10/02 02:57:34;;;;;;;2.22;1.00;;;11.10;99.90;;;;;;5035861;28;20041;-67
2022/10/02 03:00:01;;;;;;;1.67;0.73;;;11.10;99.90;;;;;;5053769;28;20037;-66
2022/10/02 03:02:27;;;;;;;1.85;0.75;;;11.10;99.90;;;;;;5053669;28;20458;-66
2022/10/02 03:04:53;;;;;;;2.10;1.00;;;11.10;99.90;;;;;;5053881;28;20037;-66
2022/10/02 03:07:18;;;;;;;2.03;1.05;;;11.20;99.90;;;;;;5019249;28;20492;-66
2022/10/02 03:10:14;;;;;;;3.22;0.85;;;11.60;99.90;;;;;;5053895;28;20396;-66
2022/10/02 03:13:20;;;;;;;2.25;0.77;;;11.20;99.90;;;;;;5052994;28;20102;-66
2022/10/02 03:16:19;;;;;;;2.03;0.80;;;11.20;99.90;;;;;;5054779;28;20041;-66
2022/10/02 03:18:50;;;;;;;1.80;0.65;;;11.20;99.90;;;;;;5018180;28;20492;-67
2022/10/02 03:21:34;;;;;;;4.38;0.80;;;11.20;99.90;;;;;;5073603;28;20123;-66
2022/10/02 03:24:17;;;;;;;1.60;0.60;;;11.20;99.90;;;;;;5073572;28;20123;-66
2022/10/02 03:27:01;;;;;;;8.15;1.20;;;11.20;99.90;;;;;;5055257;28;20041;-67
2022/10/02 03:29:58;;;;;;;1.60;0.90;;;11.30;99.90;;;;;;5055550;28;20093;-66
2022/10/02 03:32:26;;;;;;;2.65;0.75;;;11.40;99.90;;;;;;5065649;28;20048;-67
2022/10/02 03:34:52;;;;;;;1.77;0.75;;;11.40;99.90;;;;;;5073129;28;20041;-66
2022/10/02 03:37:19;;;;;;;4.63;1.52;;;11.40;99.90;;;;;;5073269;28;20472;-66
2022/10/02 03:39:45;;;;;;;4.05;1.02;;;11.50;99.90;;;;;;5073249;28;20032;-66
2022/10/02 03:42:15;;;;;;;1.33;0.73;;;11.50;99.90;;;;;;5072885;28;20040;-66
2022/10/02 03:44:42;;;;;;;1.73;0.83;;;11.80;99.90;;;;;;5073195;28;20085;-66
2022/10/02 03:47:07;;;;;;;1.10;0.70;;;11.40;99.90;;;;;;5072913;28;20113;-68
2022/10/02 03:49:33;;;;;;;2.35;0.70;;;11.70;99.90;;;;;;5072702;28;20120;-67
2022/10/02 03:51:59;;;;;;;4.75;0.82;;;11.40;99.90;;;;;;5072897;28;20045;-66
2022/10/02 03:54:30;;;;;;;3.20;0.88;;;11.50;99.90;;;;;;5072938;28;20052;-67
2022/10/02 03:56:57;;;;;;;4.45;0.75;;;11.50;99.90;;;;;;5054656;28;20040;-67
2022/10/02 03:59:32;;;;;;;6.32;0.85;;;11.40;99.90;;;;;;5072884;28;20483;-67
2022/10/02 04:02:00;;;;;;;3.47;0.90;;;11.60;99.90;;;;;;5054526;28;20044;-66
2022/10/02 04:04:36;;;;;;;1.95;0.80;;;11.40;99.90;;;;;;5072778;28;20029;-66
2022/10/02 04:07:06;;;;;;;3.80;1.15;;;11.40;99.90;;;;;;5054459;28;20052;-66
2022/10/02 04:10:02;;;;;;;0.93;0.50;;;11.40;99.90;;;;;;5054449;28;20045;-66
2022/10/02 04:12:35;;;;;;;2.88;0.98;;;11.40;99.90;;;;;;5072362;28;20041;-66
2022/10/02 04:15:13;;;;;;;2.42;0.70;;;11.30;99.90;;;;;;5072619;28;20076;-67
2022/10/02 04:18:02;;;;;;;1.55;0.80;;;11.30;99.90;;;;;;5072033;28;20051;-66
2022/10/02 04:20:40;;;;;;;1.05;0.47;;;11.30;99.90;;;;;;5071363;28;20090;-68
2022/10/02 04:23:18;;;;;;;1.73;0.65;;;11.30;99.90;;;;;;5072456;28;20540;-67
2022/10/02 04:25:49;;;;;;;5.40;0.95;;;11.20;99.90;;;;;;5072081;28;20041;-66
2022/10/02 04:28:18;;;;;;;2.95;0.70;;;11.20;99.90;;;;;;5072489;28;20093;-67
2022/10/02 04:30:44;;;;;;;4.28;0.80;;;11.20;99.90;;;;;;5072213;28;20135;-68
2022/10/02 04:33:18;;;;;;;2.75;0.80;;;11.10;99.90;;;;;;5054140;28;20486;-67
2022/10/02 04:35:49;;;;;;;2.25;0.75;;;11.10;99.90;;;;;;5072291;28;20480;-67
2022/10/02 04:38:36;;;;;;;1.98;0.65;;;11.10;99.90;;;;;;5071807;28;20075;-67
2022/10/02 04:41:38;;;;;;;1.77;0.60;;;11.10;99.90;;;;;;5053948;28;20101;-67
2022/10/02 04:44:15;;;;;;;1.67;0.68;;;11.10;99.90;;;;;;5053921;28;20040;-67
2022/10/02 04:47:17;;;;;;;4.32;0.90;;;11.00;99.90;;;;;;5054103;28;20036;-67
2022/10/02 04:49:54;;;;;;;3.85;1.58;;;11.00;99.90;;;;;;5053822;28;20088;-66
2022/10/02 04:52:31;;;;;;;3.80;0.88;;;11.00;99.90;;;;;;5054158;28;20037;-67
2022/10/02 04:55:21;;;;;;;2.28;0.73;;;10.90;99.90;;;;;;5053762;28;20047;-66
2022/10/02 04:58:17;;;;;;;0.60;0.45;;;11.00;99.90;;;;;;5071742;28;20530;-66
2022/10/02 05:01:05;;;;;;;1.75;0.52;;;10.90;99.90;;;;;;5072104;28;20051;-67
2022/10/02 05:04:07;;;;;;;0.80;0.35;;;10.80;99.90;;;;;;5056759;28;20040;-66
2022/10/02 05:07:00;;;;;;;1.05;0.50;;;10.80;99.90;;;;;;5078707;28;20079;-66
2022/10/02 05:09:30;;;;;;;2.63;0.68;;;10.80;99.90;;;;;;5060331;28;20040;-66
2022/10/02 05:12:11;;;;;;;3.05;0.60;;;10.80;99.90;;;;;;5078471;28;20055;-67
2022/10/02 05:14:45;;;;;;;6.03;0.80;;;10.70;99.90;;;;;;5078320;28;20044;-66
2022/10/02 05:17:30;;;;;;;1.35;0.50;;;10.60;99.90;;;;;;5078129;28;20060;-66
2022/10/02 05:20:20;;;;;;;3.25;0.85;;;10.60;99.90;;;;;;5078489;28;20106;-67
2022/10/02 05:22:55;;;;;;;2.13;0.73;;;10.60;99.90;;;;;;5078277;28;20040;-67
2022/10/02 05:25:39;;;;;;;1.58;0.93;;;10.50;99.90;;;;;;5078517;28;20036;-67
2022/10/02 05:28:43;;;;;;;1.98;0.63;;;10.60;99.90;;;;;;5078239;28;20044;-67
2022/10/02 05:31:17;;;;;;;2.05;0.93;;;10.50;99.90;;;;;;5078359;28;20052;-67
2022/10/02 05:34:06;;;;;;;1.10;0.60;;;10.50;99.90;;;;;;5060286;28;20427;-66
2022/10/02 05:36:50;;;;;;;1.65;0.73;;;10.50;99.90;;;;;;5060076;28;20101;-66
2022/10/02 05:39:41;;;;;;;5.93;0.80;;;10.50;99.90;;;;;;5060076;28;20040;-66
2022/10/02 05:42:26;;;;;;;1.45;0.77;;;10.80;99.90;;;;;;5060089;28;20115;-67
2022/10/02 05:45:10;;;;;;;2.33;0.77;;;10.50;99.90;;;;;;5060326;28;20495;-67
2022/10/02 05:47:44;;;;;;;0.40;0.40;;;10.50;99.90;;;;;;5078309;28;20545;-67
2022/10/02 05:50:19;;;;;;;3.75;0.80;;;10.50;99.90;;;;;;5060248;28;20056;-67
2022/10/02 05:53:01;;;;;;;3.75;0.90;;;10.50;99.90;;;;;;5078282;28;20117;-67
2022/10/02 05:55:31;;;;;;;2.90;0.90;;;10.60;99.90;;;;;;5060214;28;20396;-67
2022/10/02 05:58:10;;;;;;;2.55;0.75;;;10.60;99.90;;;;;;5078131;28;20044;-66
2022/10/02 06:00:39;;;;;;;1.60;0.65;;;10.60;99.90;;;;;;5059906;28;20044;-67
2022/10/02 06:03:10;;;;;;;4.20;0.60;;;10.60;99.90;;;;;;5060109;28;20048;-67
2022/10/02 06:05:54;;;;;;;0.77;0.50;;;10.60;99.90;;;;;;5078095;28;20089;-67
2022/10/02 06:08:39;;;;;;;2.55;0.80;;;10.60;99.90;;;;;;5078376;28;20044;-66
2022/10/02 06:11:21;;;;;;;0.85;0.70;;;10.70;99.90;;;;;;5078064;28;20040;-66
2022/10/02 06:13:51;;;;;;;;;;;10.60;99.90;;;;;;5078501;28;20055;-66
2022/10/02 06:16:21;;;;;;;1.92;0.80;;;10.70;99.90;;;;;;5055352;28;19924;-67
2022/10/02 06:18:51;;;;;;;1.40;0.60;;;10.60;99.90;;;;;;5056501;28;20093;-66
2022/10/02 06:21:34;;;;;;;2.20;0.82;;;10.70;99.90;;;;;;5074543;28;20048;-66
2022/10/02 06:24:09;;;;;;;1.20;0.70;;;10.70;99.90;;;;;;5074554;28;20072;-66
2022/10/02 06:26:39;;;;;;;2.50;0.63;;;10.70;99.90;;;;;;5074726;28;20166;-68
2022/10/02 06:29:12;;;;;;;2.42;0.90;;;10.70;99.90;;;;;;5056481;28;20113;-67
2022/10/02 06:31:53;;;;;;;1.50;0.52;;;10.80;99.90;;;;;;5074632;28;20041;-67
2022/10/02 06:34:19;;;;;;;1.65;0.60;;;10.80;99.90;;;;;;5074224;28;20083;-67
2022/10/02 06:37:39;;;;;;;3.17;0.80;;;10.80;99.90;;;;;;5039951;28;20068;-67
2022/10/02 06:40:08;;;;;;;2.05;0.82;;;10.80;99.90;;;;;;4973079;28;20534;-68
2022/10/02 06:42:39;;;;;;;2.83;0.80;;;10.90;99.90;;;;;;5037744;28;20052;-68
2022/10/02 06:45:28;;;;;;;3.75;0.70;;;11.40;99.90;;;;;;5056128;28;20083;-66
2022/10/02 06:48:29;;;;;;;1.05;0.68;;;11.00;99.90;;;;;;5056238;28;20488;-67
2022/10/02 06:51:04;;;;;;;10.07;0.82;;;11.00;99.90;;;;;;5074141;28;20056;-66
2022/10/02 06:53:40;;;;;;;2.20;0.55;;;11.10;99.90;;;;;;5056029;28;20106;-67
2022/10/02 06:56:30;;;;;;;1.90;0.75;;;11.10;99.90;;;;;;5073980;28;20499;-67
2022/10/02 06:59:33;;;;;;;1.77;1.25;;;11.20;99.90;;;;;;5073922;28;20041;-66
2022/10/02 07:02:34;;;;;;;2.28;0.70;;;11.30;99.90;;;;;;5073844;28;20507;-66
2022/10/02 07:05:26;;;;;;;5.40;0.65;;;11.30;99.90;;;;;;4972538;28;20046;-66
2022/10/02 07:08:10;;;;;;;0.95;0.70;;;11.50;99.90;;;;;;5030510;28;20060;-64
2022/10/02 07:10:49;;;;;;;2.90;1.30;;;11.70;99.90;;;;;;5073445;28;20117;-65
2022/10/02 07:13:38;;;;;;;1.00;0.63;;;11.80;99.90;;;;;;5073332;28;20036;-64
2022/10/02 07:16:23;;;;;;;1.27;0.60;;;11.90;99.90;;;;;;5009384;28;20048;-64
2022/10/02 07:19:07;;;;;;;1.92;0.65;;;12.10;99.90;;;;;;5073589;28;20060;-66
2022/10/02 07:21:54;;;;;;;2.35;0.75;;;12.30;99.90;;;;;;5073517;28;20040;-64
2022/10/02 07:24:35;;;;;;;5.32;1.00;;;12.50;99.90;;;;;;5073425;28;20045;-65
2022/10/02 07:27:10;;;;;;;2.58;0.90;;;12.60;99.90;;;;;;5072746;28;20085;-66
2022/10/02 07:29:42;;;;;;;2.00;0.80;;;12.60;99.90;;;;;;5073580;28;20040;-66
2022/10/02 07:32:20;;;;;;;4.95;1.05;;;12.70;99.90;;;;;;5073210;28;20081;-66
2022/10/02 07:34:51;;;;;;;4.90;0.70;;;12.70;99.90;;;;;;5073438;28;20071;-67
2022/10/02 07:37:35;;;;;;;5.63;0.80;;;12.70;99.90;;;;;;5073279;28;20190;-67
2022/10/02 07:40:01;;;;;;;1.63;0.80;;;12.70;99.90;;;;;;5073020;28;20045;-66
2022/10/02 07:42:55;;;;;;;3.42;0.90;;;12.80;99.90;;;;;;5073220;28;20538;-67
2022/10/02 07:45:24;;;;;;;1.85;0.70;;;12.90;99.90;;;;;;5073183;28;20040;-67
2022/10/02 07:48:27;;;;;;;6.82;1.40;;;12.90;99.90;;;;;;5072787;28;20044;-66
2022/10/02 07:51:45;;;;;;;5.25;0.77;;;12.90;99.90;;;;;;5072848;28;20083;-66
2022/10/02 07:54:10;;;;;;;3.53;0.77;;;13.00;99.90;;;;;;5072562;28;20055;-66
2022/10/02 07:56:37;;;;;;;4.00;1.02;;;12.80;99.90;;;;;;5054963;28;20498;-65
2022/10/02 07:59:14;;;;;;;3.17;0.70;;;12.80;99.90;;;;;;5072836;28;20046;-65
2022/10/02 08:01:42;;;;;;;4.43;0.80;;;12.80;99.90;;;;;;5072533;28;20045;-66
2022/10/02 08:04:17;;;;;;;2.67;0.60;;;12.80;99.90;;;;;;5037994;28;20047;-66
2022/10/02 08:06:46;;;;;;;2.38;0.90;;;12.80;99.90;;;;;;5072416;28;20496;-67
2022/10/02 08:09:23;;;;;;;3.33;0.85;;;12.90;99.90;;;;;;5054400;28;20130;-66
2022/10/02 08:11:57;;;;;;;2.95;0.70;;;13.10;99.90;;;;;;5072624;28;20107;-65
2022/10/02 08:14:39;;;;;;;4.65;0.63;;;13.30;99.90;;;;;;5072616;28;20032;-65
2022/10/02 08:17:20;;;;;;;2.28;0.40;;;13.50;99.90;;;;;;5072145;28;20040;-65
2022/10/02 08:19:49;;;;;;;1.65;0.50;;;13.60;99.90;;;;;;5054770;28;20044;-65
2022/10/02 08:22:23;;;;;;;1.50;0.60;;;13.60;99.90;;;;;;5072599;28;20090;-65
2022/10/02 08:24:55;;;;;;;5.93;1.00;;;13.50;99.90;;;;;;5072097;28;20070;-65
2022/10/02 08:27:27;;;;;;;3.33;0.52;;;13.60;99.90;;;;;;5054233;28;20044;-65
2022/10/02 08:30:01;;;;;;;4.47;1.05;;;13.60;99.90;;;;;;5054433;28;20052;-65
2022/10/02 08:32:36;;;;;;;4.25;0.80;;;13.80;99.90;;;;;;5072321;28;20051;-65
2022/10/02 08:35:13;;;;;;;9.60;0.93;;;14.00;99.90;;;;;;5072327;28;20052;-64
2022/10/02 08:38:03;;;;;;;2.05;0.95;;;14.00;99.90;;;;;;5071671;28;20075;-67
2022/10/02 08:41:03;;;;;;;1.40;0.75;;;14.10;99.90;;;;;;5072221;28;20044;-65
2022/10/02 08:43:57;;;;;;;1.63;0.68;;;14.30;99.90;;;;;;5060134;28;20094;-64
2022/10/02 08:46:57;;;;;;;3.15;0.95;;;14.60;99.90;;;;;;5054040;28;20070;-64
2022/10/02 08:49:51;;;;;;;4.47;0.50;;;14.70;99.90;;;;;;5071914;28;20051;-64
2022/10/02 08:52:26;;;;;;;8.48;0.88;;;14.70;99.90;;;;;;5072100;28;20404;-66
2022/10/02 08:55:09;;;;;;;4.88;0.85;;;14.70;99.90;;;;;;5071830;28;20040;-64
2022/10/02 08:57:53;;;;;;;3.28;0.73;;;14.70;99.90;;;;;;5071850;28;20071;-65
2022/10/02 09:00:37;;;;;;;4.18;0.50;;;14.80;99.90;;;;;;5072016;28;20041;-66
2022/10/02 09:03:27;;;;;;;0.70;0.40;;;14.80;99.90;;;;;;5071793;28;20060;-64
2022/10/02 09:06:33;;;;;;;0.98;0.55;;;14.70;99.90;;;;;;5053974;28;20045;-63
2022/10/02 09:09:20;;;;;;;2.10;0.52;;;14.70;99.90;;;;;;5053747;28;20059;-64
2022/10/02 09:12:15;;;;;;;3.97;1.02;;;14.60;99.90;;;;;;5071815;28;20038;-64
2022/10/02 09:15:12;;;;;;;2.88;0.75;;;14.60;99.90;;;;;;5053666;28;20040;-65
2022/10/02 09:18:20;;;;;;;1.13;0.77;;;14.60;99.90;;;;;;5071340;28;20056;-65
2022/10/02 09:20:49;;;;;;;4.93;1.00;;;14.60;99.90;;;;;;5058159;28;20040;-65
2022/10/02 09:23:43;;;;;;;3.50;0.60;;;14.60;99.90;;;;;;5071802;28;20041;-65
2022/10/02 09:26:38;;;;;;;5.10;1.13;;;14.60;99.90;;;;;;5071760;28;20045;-65
2022/10/02 09:29:43;;;;;;;1.42;0.60;;;14.70;99.90;;;;;;5024898;28;20407;-65
2022/10/02 09:32:55;;;;;;;3.78;0.95;;;14.60;99.90;;;;;;5069795;28;20415;-65
2022/10/02 09:35:42;;;;;;;4.35;0.93;;;14.50;99.90;;;;;;5066684;28;20419;-66
2022/10/02 09:38:28;;;;;;;1.50;0.63;;;14.40;99.90;;;;;;5071539;28;20419;-65
2022/10/02 09:41:35;;;;;;;3.00;0.95;;;14.40;99.90;;;;;;5071554;28;20162;-64
2022/10/02 09:44:22;;;;;;;6.97;0.88;;;14.30;99.90;;;;;;5053629;28;20075;-67
2022/10/02 09:47:18;;;;;;;2.00;0.70;;;14.40;99.90;;;;;;5071521;28;20047;-64
2022/10/02 09:49:53;;;;;;;3.05;0.70;;;14.50;99.90;;;;;;5055054;28;20040;-64
2022/10/02 09:52:27;;;;;;;5.65;1.00;;;14.60;99.90;;;;;;5074984;28;20044;-64
2022/10/02 09:55:35;;;;;;;1.75;0.70;;;14.70;99.90;;;;;;5075253;28;20045;-64
2022/10/02 09:58:31;;;;;;;2.63;0.60;;;14.90;99.90;;;;;;5075077;28;20036;-65
2022/10/02 10:01:15;;;;;;;2.05;0.70;;;15.30;99.90;;;;;;5057160;28;20048;-64
2022/10/02 10:04:11;;;;;;;2.10;0.70;;;15.40;99.90;;;;;;5074723;28;20052;-64
2022/10/02 10:07:15;;;;;;;4.30;0.80;;;15.30;99.90;;;;;;5074999;28;20468;-66
2022/10/02 10:10:00;;;;;;;3.65;0.93;;;15.20;99.90;;;;;;5039394;28;20059;-65
2022/10/02 10:12:48;;;;;;;0.85;0.73;;;15.00;99.90;;;;;;5056880;28;20056;-65
2022/10/02 10:15:36;;;;;;;5.25;1.02;;;14.90;99.90;;;;;;5074832;28;20045;-65
2022/10/02 10:18:25;;;;;;;3.70;0.68;;;14.80;99.90;;;;;;5054385;28;20041;-65
2022/10/02 10:21:09;;;;;;;2.65;0.60;;;14.90;99.90;;;;;;5036862;28;20063;-65
2022/10/02 10:23:58;;;;;;;3.22;0.98;;;14.90;99.90;;;;;;5036744;28;20499;-66
2022/10/02 10:26:51;;;;;;;6.25;0.90;;;14.70;99.90;;;;;;5036535;28;20045;-64
2022/10/02 10:29:30;;;;;;;5.72;0.88;;;14.70;99.90;;;;;;5054662;28;20118;-64
2022/10/02 10:32:25;;;;;;;6.03;0.68;;;14.60;99.90;;;;;;5036509;28;20059;-64
2022/10/02 10:34:53;;;;;;;2.13;1.20;;;14.30;99.90;;;;;;5054499;28;20088;-65
2022/10/02 10:40:50;;;;;;;4.13;0.77;;;14.90;99.90;;;;;;4976307;28;20050;-64
2022/10/02 10:43:31;;;;;;;5.10;0.65;;;15.00;99.90;;;;;;5046237;28;20511;-65
2022/10/02 10:46:16;;;;;;;4.03;0.70;;;15.10;99.90;;;;;;5054092;28;20128;-66
2022/10/02 10:49:03;;;;;;;7.93;1.00;;;15.20;99.90;;;;;;5036146;28;20072;-66
2022/10/02 10:51:37;;;;;;;1.83;0.57;;;15.30;99.90;;;;;;5054059;28;20037;-64
2022/10/02 10:54:15;;;;;;;3.08;0.90;;;15.40;99.90;;;;;;5054033;28;20112;-63
2022/10/02 10:57:09;;;;;;;3.78;1.00;;;15.50;99.90;;;;;;5054124;28;20037;-62
2022/10/02 11:00:01;;;;;;;2.03;0.50;;;15.60;99.90;;;;;;5053761;28;20052;-66
2022/10/02 11:02:57;;;;;;;4.82;0.90;;;15.60;99.90;;;;;;5035417;28;20045;-66
2022/10/02 11:05:42;;;;;;;4.05;0.80;;;15.70;99.90;;;;;;5054001;28;20041;-65
2022/10/02 11:08:14;;;;;;;4.72;0.60;;;15.70;99.90;;;;;;5053939;28;20049;-64
2022/10/02 11:10:54;;;;;;;1.52;0.75;;;15.80;99.90;;;;;;5053527;28;20037;-68
2022/10/02 11:13:20;;;;;;;1.67;0.75;;;15.70;99.90;;;;;;5035666;28;20049;-64
2022/10/02 11:15:55;;;;;;;1.13;0.40;;;15.80;99.90;;;;;;5055063;28;20556;-65
2022/10/02 11:18:39;;;;;;;2.22;0.82;;;15.90;99.90;;;;;;5073683;28;20048;-65
2022/10/02 11:21:27;;;;;;;4.00;0.52;;;16.10;99.90;;;;;;5073667;28;20059;-67
2022/10/02 11:24:12;;;;;;;5.78;0.70;;;16.20;95.60;;;;;;5006867;28;20049;-66
2022/10/02 11:27:05;;;;;;;5.05;1.23;;;16.00;93.10;;;;;;5073548;28;20484;-66
2022/10/02 11:30:19;;;;;;;3.88;0.60;;;16.20;96.10;;;;;;5073542;28;20036;-65
2022/10/02 11:32:58;;;;;;;3.33;0.80;;;16.20;93.70;;;;;;4972336;28;20038;-65
2022/10/02 11:35:48;;;;;;;2.10;0.45;;;16.00;95.00;;;;;;5070360;28;20445;-66
2022/10/02 11:38:31;;;;;;;5.13;0.65;;;15.90;93.90;;;;;;5073253;28;20040;-65
2022/10/02 11:41:29;;;;;;;2.55;0.52;;;15.90;94.20;;;;;;5073373;28;20538;-65
2022/10/02 11:44:08;;;;;;;3.67;0.77;;;15.90;94.20;;;;;;5073036;28;20385;-65
2022/10/02 11:46:42;;;;;;;3.58;0.60;;;16.00;97.30;;;;;;5054936;28;20123;-64
2022/10/02 11:49:26;;;;;;;5.65;0.60;;;16.00;95.10;;;;;;5072866;28;20399;-65
2022/10/02 11:51:57;;;;;;;2.28;0.77;;;16.10;90.80;;;;;;5073029;28;20484;-65
2022/10/02 11:54:49;;;;;;;4.25;0.85;;;16.20;97.90;;;;;;5055239;28;20055;-65
2022/10/02 11:57:28;;;;;;;3.25;0.63;;;16.30;93.30;;;;;;5072607;28;20049;-65
2022/10/02 12:00:09;;;;;;;2.50;0.82;;;16.40;95.70;;;;;;5054720;28;20059;-66
2022/10/02 12:03:12;;;;;;;7.88;0.93;;;16.70;96.10;;;;;;5072908;28;20160;-66
2022/10/02 12:05:57;;;;;;;10.50;0.98;;;17.00;92.50;;;;;;5040445;28;20049;-66
2022/10/02 12:08:41;;;;;;;2.40;0.63;;;17.20;91.10;;;;;;5072452;28;20080;-65
2022/10/02 12:11:10;;;;;;;2.55;0.45;;;17.20;87.80;;;;;;5072655;28;20082;-66
2022/10/02 12:14:04;;;;;;;2.03;0.40;;;17.20;87.20;;;;;;5053742;28;20076;-66
2022/10/02 12:16:50;;;;;;;2.35;0.73;;;17.00;84.40;;;;;;5020823;28;20407;-65
2022/10/02 12:19:31;;;;;;;2.03;0.60;;;16.60;90.40;;;;;;5072270;28;20041;-65
2022/10/02 12:28:37;;;;;;;2.97;0.52;;;16.50;85.40;;;;;;5072371;28;20087;-66
2022/10/02 12:31:50;;;;;;;2.20;0.57;;;16.40;89.60;;;;;;5032713;28;20060;-66
2022/10/02 12:34:27;;;;;;;2.28;0.65;;;16.40;88.50;;;;;;4954981;28;20078;-65
2022/10/02 12:37:28;;;;;;;2.63;0.47;;;16.40;80.50;;;;;;4971039;28;20085;-65
2022/10/02 12:40:04;;;;;;;4.60;0.65;;;16.50;78.10;;;;;;5054521;28;20054;-66
2022/10/02 12:43:07;;;;;;;4.22;0.52;;;16.60;74.00;;;;;;5072227;28;20037;-66
2022/10/02 12:45:53;;;;;;;2.15;0.60;;;16.70;73.00;;;;;;5072215;28;20032;-65
2022/10/02 12:48:37;;;;;;;1.83;0.57;;;16.70;79.10;;;;;;5072189;28;20044;-66
2022/10/02 12:51:15;;;;;;;3.38;0.30;;;16.70;74.00;;;;;;5072165;28;20052;-65
2022/10/02 12:53:52;;;;;;;3.50;0.60;;;16.70;77.40;;;;;;5071838;28;20106;-66
2022/10/02 12:56:39;;;;;;;3.63;0.47;;;16.70;77.70;;;;;;5071891;28;20071;-65
2022/10/02 12:59:21;;;;;;;3.67;0.47;;;16.80;88.40;;;;;;5071713;28;20044;-65
2022/10/02 13:01:55;;;;;;;1.85;0.52;;;16.70;75.30;;;;;;5071922;28;20047;-65
2022/10/02 13:04:37;;;;;;;1.65;0.47;;;16.70;87.70;;;;;;5071806;28;20044;-66
2022/10/02 13:07:29;;;;;;;2.42;0.68;;;16.50;81.70;;;;;;5071991;28;20040;-66
2022/10/02 13:10:18;;;;;;;1.90;0.28;;;16.30;85.60;;;;;;5053628;28;20051;-65
2022/10/02 13:13:02;;;;;;;6.82;0.90;;;16.20;82.20;;;;;;5071951;28;20089;-65
2022/10/02 13:15:45;;;;;;;0.90;0.32;;;16.00;87.10;;;;;;5053921;28;20402;-66
2022/10/02 13:18:32;;;;;;;0.85;0.40;;;16.00;88.50;;;;;;5051854;28;20053;-65
2022/10/02 13:21:17;;;;;;;0.88;0.30;;;16.00;91.20;;;;;;5033698;28;20136;-66
2022/10/02 13:23:55;;;;;;;4.65;0.82;;;16.20;89.60;;;;;;5051554;28;20076;-66
2022/10/02 13:26:35;;;;;;;4.50;0.98;;;16.30;88.40;;;;;;5055606;28;20043;-65
2022/10/02 13:29:26;;;;;;;3.08;0.50;;;16.50;87.70;;;;;;5055725;28;20118;-65
2022/10/02 13:32:15;;;;;;;2.92;0.43;;;16.60;86.10;;;;;;5055795;28;20045;-66
2022/10/02 13:34:54;;;;;;;2.40;0.57;;;16.60;68.90;;;;;;5055704;28;20037;-65
2022/10/02 13:37:27;;;;;;;4.88;0.88;;;16.60;77.00;;;;;;5055638;28;20037;-65
2022/10/02 13:40:23;;;;;;;1.90;0.50;;;16.60;77.90;;;;;;5037552;28;20041;-65
2022/10/02 13:42:51;;;;;;;4.32;0.70;;;16.50;81.00;;;;;;5013462;28;20136;-65
2022/10/02 13:45:31;;;;;;;6.05;0.90;;;16.40;83.30;;;;;;5055609;28;20566;-65
2022/10/02 13:48:35;;;;;;;2.23;0.80;;;16.30;84.90;;;;;;5055546;28;20439;-66
2022/10/02 13:51:49;;;;;;;5.68;0.80;;;16.20;84.30;;;;;;5037546;28;20375;-65
2022/10/02 13:54:52;;;;;;;3.65;0.68;;;16.00;81.50;;;;;;5028621;28;20063;-66
2022/10/02 13:57:34;;;;;;;3.03;0.75;;;15.80;82.80;;;;;;5037306;28;20579;-65
2022/10/02 14:00:28;;;;;;;3.28;0.43;;;15.70;86.00;;;;;;5055210;28;20037;-66
2022/10/02 14:03:27;;;;;;;6.55;0.50;;;15.70;90.60;;;;;;4987506;28;20048;-65
2022/10/02 14:06:04;;;;;;;6.10;0.73;;;15.70;91.40;;;;;;5036735;28;20041;-65
2022/10/02 14:09:07;;;;;;;3.63;0.70;;;15.70;87.80;;;;;;5054992;28;20047;-65
2022/10/02 14:12:05;;;;;;;3.65;0.93;;;15.70;85.10;;;;;;5055036;28;20040;-66
2022/10/02 14:14:57;;;;;;;1.20;0.47;;;15.80;87.00;;;;;;5020936;28;20052;-66